»·PEaware :: N228Q KBIL-KCII

N228Q :: KBIL-KCII

FLIGHT INFORMATION

Flight Status: Arrived
Operator: Privately registered:
United States
More flights under this callsign
Pilot: Chuck O. (4337)
Aircraft: BEECH AIRCRAFT BONANZA
(BE35)
More flights by this aircraft type
Origin: KBIL Billings Logan Intl
United States
Destination: KCII Choteau
United States
More flights between these airports :: More routes between these airports
Route: +BIL5 BIL V187 GTF V536 CHOTE
File this flight plan on PilotEdge
Remarks:
Altitude:
(Current/Filed)
12,000ft
Speed:
(Current/Filed)
160kts
Departed: 22-Sep-20 09:26 AM
Arrived: 22-Sep-20 10:48 AM
Distance/Time
Traveled:
192nm/1:21
Distance/Time
To Go:
Arrived

Flight Plot

Page will automatically refresh every two minutes.

Flight plan parsing failed; only flown route is shown


Map Options




Map Legend


Flown Route
Filed Route
Departure Airport
Arrival Airport
Navaid (VOR, NDB)
Fix

Horizontal Profiles

Position Reports

Time Latitude Longitude Heading Altitude Ground
Speed
22-Sep-20 09:11 45.804710 -108.551892 202 3583ft 0kts
22-Sep-20 09:12 45.804718 -108.551320 42 3583ft 0kts
22-Sep-20 09:13 45.805210 -108.552162 333 3583ft 0kts
22-Sep-20 09:14 45.805214 -108.552165 333 3583ft 0kts
22-Sep-20 09:15 45.805217 -108.552167 333 3583ft 0kts
22-Sep-20 09:16 45.805221 -108.552170 333 3583ft 0kts
22-Sep-20 09:17 45.805225 -108.552173 333 3583ft 0kts
22-Sep-20 09:18 45.805229 -108.552175 333 3583ft 0kts
22-Sep-20 09:19 45.805232 -108.552178 333 3583ft 0kts
22-Sep-20 09:20 45.805236 -108.552181 333 3583ft 0kts
22-Sep-20 09:21 45.805533 -108.552106 111 3583ft 10kts
22-Sep-20 09:22 45.805113 -108.550613 112 3583ft 0kts
22-Sep-20 09:23 45.804962 -108.549523 42 3583ft 0kts
22-Sep-20 09:24 45.805020 -108.549456 31 3583ft 2kts
22-Sep-20 09:25 45.806009 -108.551322 292 3583ft 45kts
22-Sep-20 09:26 45.814651 -108.583133 273 4287ft 94kts
22-Sep-20 09:27 45.824401 -108.619858 289 5267ft 104kts
22-Sep-20 09:28 45.835557 -108.658933 289 6240ft 106kts
22-Sep-20 09:29 45.847067 -108.698401 288 7138ft 107kts
22-Sep-20 09:30 45.859169 -108.738192 289 7949ft 110kts
22-Sep-20 09:31 45.871742 -108.778187 289 8701ft 110kts
22-Sep-20 09:32 45.884472 -108.818347 289 9419ft 109kts
22-Sep-20 09:33 45.897310 -108.857269 300 10114ft 108kts
22-Sep-20 09:34 45.925853 -108.874960 330 10763ft 114kts
22-Sep-20 09:35 45.950590 -108.898803 305 11330ft 109kts
22-Sep-20 09:36 45.973486 -108.929451 309 11853ft 114kts
22-Sep-20 09:37 45.999713 -108.962664 310 12001ft 139kts
22-Sep-20 09:38 46.030447 -109.001247 311 11998ft 151kts
22-Sep-20 09:39 46.062347 -109.041386 311 12002ft 153kts
22-Sep-20 09:40 46.094419 -109.081831 311 12008ft 153kts
22-Sep-20 09:41 46.126473 -109.122319 311 11998ft 152kts
22-Sep-20 09:42 46.158095 -109.162338 311 12002ft 151kts
22-Sep-20 09:43 46.189823 -109.202559 311 11997ft 151kts
22-Sep-20 09:44 46.221402 -109.242650 311 11997ft 151kts
22-Sep-20 09:45 46.244256 -109.271706 311 11996ft 151kts
22-Sep-20 09:46 46.284790 -109.323322 311 11995ft 151kts
22-Sep-20 09:48 46.316285 -109.363496 311 12009ft 150kts
22-Sep-20 09:49 46.347759 -109.403724 311 12001ft 152kts
22-Sep-20 09:50 46.379549 -109.444405 311 12002ft 151kts
22-Sep-20 09:51 46.411166 -109.484932 311 12004ft 151kts
22-Sep-20 09:52 46.442776 -109.525519 311 12007ft 151kts
22-Sep-20 09:53 46.474330 -109.566100 311 12007ft 151kts
22-Sep-20 09:54 46.506011 -109.606910 311 12008ft 151kts
22-Sep-20 09:55 46.537559 -109.647614 311 12008ft 151kts
22-Sep-20 09:56 46.569089 -109.688361 311 12008ft 151kts
22-Sep-20 09:57 46.600492 -109.729010 311 12012ft 151kts
22-Sep-20 09:58 46.632025 -109.769894 311 12012ft 151kts
22-Sep-20 09:59 46.663702 -109.811034 311 12002ft 152kts
22-Sep-20 10:00 46.695245 -109.852054 310 12008ft 151kts
22-Sep-20 10:01 46.726562 -109.892860 310 12008ft 151kts
22-Sep-20 10:02 46.758178 -109.934121 310 12011ft 151kts
22-Sep-20 10:03 46.789677 -109.975295 310 12013ft 151kts
22-Sep-20 10:04 46.821120 -110.016466 310 12009ft 152kts
22-Sep-20 10:04 46.847280 -110.050768 310 12005ft 152kts
22-Sep-20 10:06 46.881254 -110.102027 297 12010ft 147kts
22-Sep-20 10:06 46.899823 -110.143995 296 12004ft 148kts
22-Sep-20 10:07 46.922186 -110.194472 296 11999ft 148kts
22-Sep-20 10:09 46.948284 -110.253430 296 12018ft 147kts
22-Sep-20 10:09 46.966788 -110.295319 296 12037ft 147kts
22-Sep-20 10:10 46.989072 -110.345844 296 12036ft 147kts
22-Sep-20 10:11 47.011373 -110.396491 296 12026ft 148kts
22-Sep-20 10:12 47.033754 -110.447415 296 12024ft 148kts
22-Sep-20 10:13 47.055988 -110.498102 296 12027ft 148kts
22-Sep-20 10:14 47.078256 -110.548960 296 12028ft 148kts
22-Sep-20 10:15 47.100459 -110.599763 296 12021ft 148kts
22-Sep-20 10:16 47.122821 -110.651023 296 11996ft 148kts
22-Sep-20 10:17 47.145014 -110.701993 296 12015ft 148kts
22-Sep-20 10:18 47.167238 -110.753125 296 12011ft 148kts
22-Sep-20 10:19 47.189425 -110.804278 296 12003ft 149kts
22-Sep-20 10:20 47.211739 -110.855810 296 12007ft 149kts
22-Sep-20 10:21 47.233972 -110.907266 296 12008ft 150kts
22-Sep-20 10:22 47.256717 -110.960006 296 12007ft 153kts
22-Sep-20 10:23 47.279701 -111.013377 296 12003ft 154kts
22-Sep-20 10:24 47.302620 -111.066711 296 12004ft 154kts
22-Sep-20 10:25 47.325643 -111.120397 296 12004ft 154kts
22-Sep-20 10:26 47.348579 -111.173998 296 12003ft 155kts
22-Sep-20 10:27 47.371582 -111.227849 296 12002ft 155kts
22-Sep-20 10:28 47.394607 -111.281849 295 12001ft 155kts
22-Sep-20 10:29 47.417623 -111.335940 295 12002ft 155kts
22-Sep-20 10:30 47.440614 -111.390083 295 12003ft 155kts
22-Sep-20 10:31 47.460480 -111.448062 288 11704ft 167kts
22-Sep-20 10:32 47.480017 -111.515046 290 10830ft 186kts
22-Sep-20 10:33 47.500719 -111.586053 291 9877ft 189kts
22-Sep-20 10:34 47.521514 -111.657737 293 8944ft 190kts
22-Sep-20 10:35 47.541306 -111.726131 293 8103ft 189kts
22-Sep-20 10:36 47.562884 -111.800857 294 7219ft 187kts
22-Sep-20 10:37 47.581996 -111.867321 294 7013ft 162kts
22-Sep-20 10:38 47.599969 -111.926331 296 7014ft 154kts
22-Sep-20 10:39 47.615688 -111.984269 292 7021ft 149kts
22-Sep-20 10:40 47.631682 -112.040880 294 7021ft 148kts
22-Sep-20 10:41 47.660804 -112.080504 345 6830ft 156kts
22-Sep-20 10:42 47.702053 -112.099796 340 6197ft 155kts
22-Sep-20 10:43 47.742116 -112.121774 341 5655ft 138kts
22-Sep-20 10:44 47.772530 -112.138342 340 5056ft 104kts
22-Sep-20 10:45 47.800005 -112.153360 340 4489ft 109kts
22-Sep-20 10:46 47.825042 -112.167131 343 3956ft 74kts
22-Sep-20 10:47 47.825264 -112.167142 156 3950ft 14kts
22-Sep-20 10:48 47.823438 -112.168205 188 3950ft 9kts
22-Sep-20 10:49 47.821519 -112.169287 306 3950ft 1kts
22-Sep-20 10:50 47.821727 -112.169357 87 3950ft 0kts
22-Sep-20 10:51 47.821727 -112.169357 87 3950ft 0kts
22-Sep-20 10:52 47.821727 -112.169357 87 3950ft 0kts
22-Sep-20 10:53 47.821727 -112.169357 87 3950ft 0kts

Navigation Log

Ident Type
Flight plan parsing failed, navigation log unavailable